Time;durP1;ratioP1;P1;durP2;ratioP2;P2;SDS_P1;SDS_P2;PMS_P1;PMS_P2;Temp;Humidity;BMP_temperature;BMP_pressure;BME280_temperature;BME280_humidity;BME280_pressure;Samples;Min_cycle;Max_cycle;Signal;HPM_P1;HPM_P2
2022/12/04 00:00:38;;;;;;;74.43;26.43;;;-0.40;99.90;;;;;;5071753;28;20243;-84
2022/12/04 00:03:04;;;;;;;62.37;23.60;;;-0.40;99.90;;;;;;5093446;28;20534;-84
2022/12/04 00:05:29;;;;;;;67.27;25.27;;;-0.40;99.90;;;;;;5093450;28;20222;-84
2022/12/04 00:07:55;;;;;;;76.97;25.57;;;-0.40;99.90;;;;;;5075341;28;20639;-84
2022/12/04 00:10:21;;;;;;;68.53;25.20;;;-0.40;99.90;;;;;;5075331;28;20176;-84
2022/12/04 00:12:47;;;;;;;77.73;25.83;;;-0.40;99.90;;;;;;5075100;28;20211;-84
2022/12/04 00:15:12;;;;;;;75.07;26.83;;;-0.40;99.90;;;;;;5075304;28;20233;-84
2022/12/04 00:17:38;;;;;;;78.73;26.40;;;-0.40;99.90;;;;;;5093356;28;20218;-84
2022/12/04 00:20:04;;;;;;;78.70;28.10;;;-0.40;99.90;;;;;;5078960;28;20177;-84
2022/12/04 00:22:30;;;;;;;71.20;25.90;;;-0.50;99.90;;;;;;5078808;28;20216;-84
2022/12/04 00:24:56;;;;;;;70.30;25.57;;;-0.50;99.90;;;;;;5096982;28;20259;-84
2022/12/04 00:27:21;;;;;;;65.00;24.03;;;-0.40;99.90;;;;;;5078589;28;20176;-84
2022/12/04 00:29:47;;;;;;;75.23;25.63;;;-0.40;99.90;;;;;;5096830;28;20268;-84
2022/12/04 00:32:13;;;;;;;74.70;26.20;;;-0.40;99.90;;;;;;5096804;28;20175;-84
2022/12/04 00:34:38;;;;;;;72.50;25.23;;;-0.40;99.90;;;;;;5096852;28;20235;-85
2022/12/04 00:37:04;;;;;;;66.93;25.90;;;-0.40;99.90;;;;;;5078543;28;20188;-84
2022/12/04 00:39:30;;;;;;;74.93;26.83;;;-0.30;99.90;;;;;;5078902;28;20185;-85
2022/12/04 00:41:55;;;;;;;67.73;23.50;;;-0.40;99.90;;;;;;5078453;28;20180;-85
2022/12/04 00:44:21;;;;;;;67.43;24.87;;;-0.40;99.90;;;;;;5077876;28;20295;-84
2022/12/04 00:46:47;;;;;;;68.40;24.80;;;-0.40;99.90;;;;;;5076349;28;20230;-84
2022/12/04 00:49:12;;;;;;;70.53;24.07;;;-0.50;99.90;;;;;;5075019;28;20231;-85
2022/12/04 00:51:38;;;;;;;59.43;23.13;;;-0.40;99.90;;;;;;5074983;28;20623;-85
2022/12/04 00:54:04;;;;;;;66.83;24.33;;;-0.40;99.90;;;;;;5074930;28;20604;-84
2022/12/04 00:56:29;;;;;;;66.63;24.33;;;-0.40;99.90;;;;;;5074516;28;20241;-83
2022/12/04 00:58:58;;;;;;;68.17;25.80;;;-0.40;99.90;;;;;;5078124;28;20176;-85
2022/12/04 01:01:24;;;;;;;74.50;26.33;;;-0.40;99.90;;;;;;5077947;28;20177;-84
2022/12/04 01:03:50;;;;;;;70.33;26.40;;;-0.40;99.90;;;;;;5078071;28;20220;-84
2022/12/04 01:06:25;;;;;;;61.97;22.53;;;-0.40;99.90;;;;;;5096305;28;20659;-84
2022/12/04 01:08:52;;;;;;;73.93;25.83;;;-0.40;99.90;;;;;;5078008;28;20172;-85
2022/12/04 01:11:18;;;;;;;68.17;25.20;;;-0.30;99.90;;;;;;5078196;28;20218;-85
2022/12/04 01:13:45;;;;;;;68.07;25.27;;;-0.30;99.90;;;;;;5077935;28;20271;-84
2022/12/04 01:16:23;;;;;;;65.60;26.47;;;-0.30;99.90;;;;;;5095728;28;20513;-86
2022/12/04 01:18:49;;;;;;;64.83;26.03;;;-0.40;99.90;;;;;;5077820;28;20264;-85
2022/12/04 01:21:15;;;;;;;70.07;26.60;;;-0.30;99.90;;;;;;5077898;28;20496;-85
2022/12/04 01:23:41;;;;;;;64.10;25.60;;;-0.30;99.90;;;;;;5077562;28;20662;-85
2022/12/04 01:26:07;;;;;;;72.50;27.57;;;-0.30;99.90;;;;;;5077658;28;20533;-84
2022/12/04 01:28:33;;;;;;;69.17;26.23;;;-0.40;99.90;;;;;;5077661;28;20181;-84
2022/12/04 01:31:01;;;;;;;68.80;26.97;;;-0.30;99.90;;;;;;5076721;28;20187;-84
2022/12/04 01:33:28;;;;;;;69.80;26.07;;;-0.40;99.90;;;;;;5077617;28;20177;-84
2022/12/04 01:35:58;;;;;;;65.53;24.70;;;-0.30;99.90;;;;;;5095762;28;20184;-84
2022/12/04 01:38:25;;;;;;;63.03;25.33;;;-0.30;99.90;;;;;;5095345;28;20248;-84
2022/12/04 01:40:51;;;;;;;70.87;26.57;;;-0.30;99.90;;;;;;5095854;28;20192;-85
2022/12/04 01:43:18;;;;;;;71.73;25.70;;;-0.30;99.90;;;;;;5077323;28;20614;-85
2022/12/04 01:45:55;;;;;;;65.50;25.97;;;-0.30;99.90;;;;;;5076900;28;20492;-84
2022/12/04 01:48:32;;;;;;;64.20;26.90;;;-0.30;99.90;;;;;;5077245;28;20175;-84
2022/12/04 01:51:13;;;;;;;72.13;28.10;;;-0.30;99.90;;;;;;5095291;28;20603;-84
2022/12/04 01:53:44;;;;;;;60.07;24.73;;;-0.30;99.90;;;;;;5095445;28;20509;-85
2022/12/04 01:56:10;;;;;;;69.97;25.77;;;-0.20;99.90;;;;;;5076946;28;20227;-84
2022/12/04 01:58:42;;;;;;;71.47;26.20;;;-0.20;99.90;;;;;;5077053;28;20475;-84
2022/12/04 02:01:09;;;;;;;61.33;25.17;;;-0.30;99.90;;;;;;5087197;28;20257;-84
2022/12/04 02:03:37;;;;;;;66.40;26.40;;;-0.30;99.90;;;;;;5076763;28;20228;-85
2022/12/04 02:06:03;;;;;;;64.03;26.27;;;-0.30;99.90;;;;;;5077098;28;20578;-84
2022/12/04 02:08:29;;;;;;;67.90;25.23;;;-0.30;99.90;;;;;;5076792;28;20218;-85
2022/12/04 02:11:22;;;;;;;62.37;26.33;;;-0.20;99.90;;;;;;5076849;28;20276;-84
2022/12/04 02:14:24;;;;;;;68.63;26.63;;;-0.30;99.90;;;;;;5076659;28;20169;-85
2022/12/04 02:17:19;;;;;;;63.67;26.20;;;-0.30;99.90;;;;;;5076364;28;20203;-84
2022/12/04 02:20:01;;;;;;;60.23;26.50;;;-0.20;99.90;;;;;;5068545;28;20658;-84
2022/12/04 02:22:49;;;;;;;62.83;26.20;;;-0.20;99.90;;;;;;5076616;28;20551;-84
2022/12/04 02:25:26;;;;;;;60.50;25.60;;;-0.20;99.90;;;;;;5094819;28;20214;-84
2022/12/04 02:28:08;;;;;;;63.63;26.10;;;-0.20;99.90;;;;;;5076247;28;20196;-84
2022/12/04 02:30:37;;;;;;;68.47;25.70;;;-0.20;99.90;;;;;;5076409;28;20180;-84
2022/12/04 02:33:12;;;;;;;62.60;26.53;;;-0.10;99.90;;;;;;5076141;28;20168;-85
2022/12/04 02:35:46;;;;;;;62.87;26.17;;;-0.20;99.90;;;;;;5094591;28;20196;-85
2022/12/04 02:38:59;;;;;;;65.43;27.10;;;-0.20;99.90;;;;;;5076231;28;20226;-84
2022/12/04 02:41:43;;;;;;;67.43;25.90;;;-0.20;99.90;;;;;;5012515;28;20692;-84
2022/12/04 02:44:24;;;;;;;62.57;27.33;;;-0.10;99.90;;;;;;4995834;28;20660;-84
2022/12/04 02:46:55;;;;;;;65.23;25.97;;;-0.10;99.90;;;;;;5068726;28;20526;-85
2022/12/04 02:51:57;;;;;;;62.63;27.20;;;-0.10;99.90;;;;;;5088523;22;20236;-83
2022/12/04 02:54:38;;;;;;;53.33;26.47;;;-0.10;99.90;;;;;;5056182;28;20185;-82
2022/12/04 02:57:10;;;;;;;60.53;25.30;;;-0.10;99.90;;;;;;5074062;28;20165;-82
2022/12/04 02:59:40;;;;;;;68.90;26.97;;;-0.10;99.90;;;;;;5073929;28;20167;-82
2022/12/04 03:02:13;;;;;;;59.53;26.23;;;-0.10;99.90;;;;;;5055898;28;20181;-83
2022/12/04 03:04:41;;;;;;;65.70;27.77;;;-0.10;99.90;;;;;;5056040;28;20184;-83
2022/12/04 03:07:15;;;;;;;61.13;26.13;;;-0.10;99.90;;;;;;5055908;28;20184;-86
2022/12/04 03:09:53;;;;;;;60.30;25.20;;;-0.10;99.90;;;;;;5073958;28;20200;-85
2022/12/04 03:12:40;;;;;;;61.93;25.90;;;-0.10;99.90;;;;;;5055817;28;20176;-85
2022/12/04 03:15:20;;;;;;;65.23;27.20;;;-0.10;99.90;;;;;;5073750;28;20166;-85
2022/12/04 03:17:55;;;;;;;64.87;26.97;;;-0.10;99.90;;;;;;5055826;28;20168;-86
2022/12/04 03:20:22;;;;;;;61.87;26.67;;;-0.10;99.90;;;;;;5073679;28;20259;-85
2022/12/04 03:22:55;;;;;;;64.10;26.37;;;-0.10;99.90;;;;;;5055474;28;20299;-85
2022/12/04 03:25:30;;;;;;;59.63;26.57;;;-0.10;99.90;;;;;;5073778;28;20219;-85
2022/12/04 03:28:07;;;;;;;57.90;24.43;;;0.00;99.90;;;;;;5073799;28;20575;-85
2022/12/04 03:30:43;;;;;;;63.30;26.73;;;-0.10;99.90;;;;;;5073571;28;20169;-85
2022/12/04 03:33:17;;;;;;;61.43;23.40;;;-0.10;99.90;;;;;;5073604;28;20214;-85
2022/12/04 03:35:56;;;;;;;60.87;27.47;;;0.00;99.90;;;;;;5055670;28;20189;-85
2022/12/04 03:38:43;;;;;;;61.97;25.17;;;0.00;99.90;;;;;;5055613;28;20187;-86
2022/12/04 03:41:25;;;;;;;67.67;27.57;;;0.00;99.90;;;;;;5073519;28;20197;-85
2022/12/04 03:43:58;;;;;;;62.20;27.63;;;0.00;99.90;;;;;;5055508;28;20239;-85
2022/12/04 03:46:45;;;;;;;60.90;26.63;;;-0.10;99.90;;;;;;5055509;28;20184;-84
2022/12/04 03:49:30;;;;;;;67.07;27.17;;;0.00;99.90;;;;;;5073597;28;20677;-85
2022/12/04 03:52:16;;;;;;;59.50;25.93;;;0.00;99.90;;;;;;5073315;28;20232;-85
2022/12/04 03:54:55;;;;;;;64.90;26.67;;;0.00;99.90;;;;;;5058911;28;20181;-85
2022/12/04 03:57:29;;;;;;;59.77;26.60;;;0.00;99.90;;;;;;5059410;28;20515;-84
2022/12/04 04:00:10;;;;;;;55.47;22.90;;;0.00;99.90;;;;;;5059251;28;20519;-84
2022/12/04 04:02:41;;;;;;;63.80;27.77;;;0.00;99.90;;;;;;5077168;28;20262;-85
2022/12/04 04:05:09;;;;;;;66.90;27.33;;;0.00;99.90;;;;;;5059211;28;20620;-85
2022/12/04 04:08:24;;;;;;;65.40;28.77;;;0.00;99.90;;;;;;5077268;28;20238;-85
2022/12/04 04:10:48;;;;;;;53.90;23.47;;;0.00;99.90;;;;;;5076844;28;20637;-84
2022/12/04 04:24:33;;;;;;;60.17;25.80;;;0.10;99.90;;;;;;5076882;28;20226;-85
2022/12/04 04:26:59;;;;;;;65.50;27.37;;;0.10;99.90;;;;;;5058612;28;20175;-86
2022/12/04 04:29:26;;;;;;;60.10;26.00;;;0.10;99.90;;;;;;5076647;28;20177;-84
2022/12/04 04:31:57;;;;;;;60.10;26.30;;;0.10;99.90;;;;;;5058818;28;20174;-85
2022/12/04 04:34:38;;;;;;;58.20;26.43;;;0.10;99.90;;;;;;5058739;28;20663;-84
2022/12/04 04:37:46;;;;;;;57.50;25.03;;;0.10;99.90;;;;;;5058739;28;20262;-85
2022/12/04 04:40:27;;;;;;;63.07;26.53;;;0.10;99.90;;;;;;5076634;28;20169;-84
2022/12/04 04:42:55;;;;;;;56.53;25.33;;;0.10;99.90;;;;;;5076569;28;20263;-84
2022/12/04 04:45:33;;;;;;;63.43;27.23;;;0.10;99.90;;;;;;5076550;28;20196;-85
2022/12/04 04:48:08;;;;;;;59.67;25.33;;;0.10;99.90;;;;;;5058486;28;20177;-85
2022/12/04 04:50:35;;;;;;;56.07;26.17;;;0.10;99.90;;;;;;5054812;28;20362;-84
2022/12/04 04:53:07;;;;;;;55.20;25.33;;;0.10;99.90;;;;;;5075954;28;20253;-84
2022/12/04 04:55:34;;;;;;;53.97;25.63;;;0.20;99.90;;;;;;5076368;28;20165;-85
2022/12/04 04:58:08;;;;;;;60.70;26.30;;;0.20;99.90;;;;;;5076283;28;20174;-84
2022/12/04 05:00:35;;;;;;;57.07;25.93;;;0.20;99.90;;;;;;5076246;28;20204;-85
2022/12/04 05:03:00;;;;;;;59.90;26.47;;;0.20;99.90;;;;;;5075936;28;20207;-84
2022/12/04 05:05:26;;;;;;;65.43;27.20;;;0.20;99.90;;;;;;5074962;28;20497;-84
2022/12/04 05:07:52;;;;;;;57.30;26.90;;;0.20;99.90;;;;;;5076064;28;20256;-85
2022/12/04 05:10:17;;;;;;;54.77;25.10;;;0.20;99.90;;;;;;5058008;28;20586;-85
2022/12/04 05:12:43;;;;;;;53.07;25.50;;;0.10;99.90;;;;;;5057941;28;20177;-84
2022/12/04 05:15:09;;;;;;;56.90;25.50;;;0.20;99.90;;;;;;5075779;28;20618;-84
2022/12/04 05:17:35;;;;;;;59.43;27.30;;;0.20;99.90;;;;;;5057997;28;20177;-84
2022/12/04 05:20:04;;;;;;;53.47;26.33;;;0.20;99.90;;;;;;5057827;28;20199;-84
2022/12/04 05:22:34;;;;;;;52.43;24.23;;;0.20;99.90;;;;;;5057694;28;20201;-84
2022/12/04 05:25:01;;;;;;;52.37;25.70;;;0.20;99.90;;;;;;5057677;28;20188;-86
2022/12/04 05:27:28;;;;;;;51.30;24.63;;;0.20;99.90;;;;;;5075523;28;20161;-84
2022/12/04 05:29:55;;;;;;;59.70;26.23;;;0.20;99.90;;;;;;5075566;28;20173;-84
2022/12/04 05:32:23;;;;;;;53.30;24.83;;;0.20;99.90;;;;;;5057615;28;20638;-84
2022/12/04 05:34:51;;;;;;;55.73;24.63;;;0.20;99.90;;;;;;5057908;28;20201;-85
2022/12/04 05:37:17;;;;;;;50.93;24.50;;;0.20;99.90;;;;;;5057483;28;20564;-85
2022/12/04 05:39:43;;;;;;;55.93;24.50;;;0.20;99.90;;;;;;5057330;28;20184;-84
2022/12/04 05:42:09;;;;;;;57.07;25.87;;;0.20;99.90;;;;;;5075171;28;20604;-84
2022/12/04 05:44:35;;;;;;;58.13;26.73;;;0.20;99.90;;;;;;5075247;28;20176;-85
2022/12/04 05:47:00;;;;;;;51.57;24.90;;;0.20;99.90;;;;;;5057238;28;20177;-85
2022/12/04 05:49:33;;;;;;;54.50;27.37;;;0.20;99.90;;;;;;5075172;28;20672;-85
2022/12/04 05:52:01;;;;;;;60.30;26.03;;;0.20;99.90;;;;;;5075086;28;20549;-85
2022/12/04 05:54:26;;;;;;;62.17;26.90;;;0.20;99.90;;;;;;5056824;28;20186;-85
2022/12/04 05:56:52;;;;;;;54.73;25.53;;;0.20;99.90;;;;;;5074923;28;20189;-84
2022/12/04 05:59:18;;;;;;;52.50;25.47;;;0.10;99.90;;;;;;5075326;28;20187;-85
2022/12/04 06:01:44;;;;;;;59.80;25.47;;;0.20;99.90;;;;;;5057027;28;20181;-85
2022/12/04 06:04:10;;;;;;;65.37;27.13;;;0.10;99.90;;;;;;5074734;28;20290;-85
2022/12/04 06:06:37;;;;;;;54.07;25.00;;;0.20;99.90;;;;;;5056883;28;20207;-84
2022/12/04 06:09:05;;;;;;;54.90;24.73;;;0.20;99.90;;;;;;5073235;28;20276;-84
2022/12/04 06:11:34;;;;;;;59.37;25.67;;;0.20;99.90;;;;;;5056745;28;20180;-84
2022/12/04 06:14:03;;;;;;;54.50;25.50;;;0.20;99.90;;;;;;5056783;28;20315;-85
2022/12/04 06:16:32;;;;;;;59.87;26.43;;;0.20;99.90;;;;;;5056358;28;20626;-84
2022/12/04 06:19:01;;;;;;;58.60;25.90;;;0.20;99.90;;;;;;5074599;28;20655;-85
2022/12/04 06:21:28;;;;;;;55.63;26.10;;;0.20;99.90;;;;;;5056392;28;20177;-85
2022/12/04 06:23:54;;;;;;;56.63;26.63;;;0.20;99.90;;;;;;5056450;28;20307;-86
2022/12/04 06:26:21;;;;;;;54.67;26.40;;;0.20;99.90;;;;;;5073196;28;20185;-84
2022/12/04 06:28:47;;;;;;;57.10;24.70;;;0.20;99.90;;;;;;5056314;28;20191;-85
2022/12/04 06:31:17;;;;;;;57.13;25.67;;;0.20;99.90;;;;;;5056327;28;20177;-84
2022/12/04 06:33:44;;;;;;;61.20;26.07;;;0.10;99.90;;;;;;5056595;28;20251;-85
2022/12/04 06:36:15;;;;;;;60.20;26.60;;;0.20;99.90;;;;;;5074362;28;20195;-85
2022/12/04 06:38:41;;;;;;;62.60;26.90;;;0.10;99.90;;;;;;5056344;28;20185;-84
2022/12/04 06:41:09;;;;;;;66.00;27.33;;;0.10;99.90;;;;;;5056285;28;20223;-85
2022/12/04 06:43:35;;;;;;;62.53;27.80;;;0.20;99.90;;;;;;5056198;28;20217;-85
2022/12/04 06:46:10;;;;;;;66.10;27.37;;;0.20;99.90;;;;;;5056289;28;20639;-85
2022/12/04 06:48:37;;;;;;;57.37;26.93;;;0.20;99.90;;;;;;5055865;28;20187;-85
2022/12/04 06:51:15;;;;;;;63.43;27.77;;;0.20;99.90;;;;;;5072482;28;20667;-84
2022/12/04 06:53:41;;;;;;;60.70;26.47;;;0.20;99.90;;;;;;5074038;28;20512;-85
2022/12/04 06:56:10;;;;;;;61.40;26.43;;;0.20;99.90;;;;;;5055978;28;20169;-84
2022/12/04 06:58:36;;;;;;;63.07;26.73;;;0.10;99.90;;;;;;5074048;28;20260;-83
2022/12/04 07:01:14;;;;;;;64.27;28.00;;;0.10;99.90;;;;;;5073911;28;20170;-84
2022/12/04 07:03:40;;;;;;;64.67;28.17;;;0.10;99.90;;;;;;5055808;28;20205;-85
2022/12/04 07:06:22;;;;;;;61.90;27.37;;;0.20;99.90;;;;;;5073984;28;20167;-85
2022/12/04 07:08:50;;;;;;;65.87;29.03;;;0.10;99.90;;;;;;5073776;28;20545;-84
2022/12/04 07:11:17;;;;;;;62.07;27.70;;;0.10;99.90;;;;;;5073866;28;20201;-85
2022/12/04 07:13:42;;;;;;;67.03;27.50;;;0.10;99.90;;;;;;5073743;28;20191;-84
2022/12/04 07:16:12;;;;;;;63.53;28.73;;;0.10;99.90;;;;;;5055838;28;20174;-84
2022/12/04 07:18:38;;;;;;;62.23;28.03;;;0.10;99.90;;;;;;5055654;28;20641;-84
2022/12/04 07:21:06;;;;;;;64.00;28.13;;;0.20;99.90;;;;;;5055585;28;20243;-84
2022/12/04 07:23:32;;;;;;;65.10;28.27;;;0.20;99.90;;;;;;5073560;28;20216;-84
2022/12/04 07:26:02;;;;;;;64.73;28.17;;;0.10;99.90;;;;;;5055518;28;20187;-86
2022/12/04 07:28:28;;;;;;;69.70;30.73;;;0.10;99.90;;;;;;5054969;28;20631;-86
2022/12/04 07:30:54;;;;;;;61.40;28.43;;;0.10;99.90;;;;;;5055715;28;20173;-85
2022/12/04 07:33:19;;;;;;;63.70;29.30;;;0.10;99.90;;;;;;5055532;28;20188;-85
2022/12/04 07:35:54;;;;;;;66.17;29.20;;;0.10;99.90;;;;;;5055566;28;20235;-86
2022/12/04 07:38:20;;;;;;;65.37;29.20;;;0.10;99.90;;;;;;5073464;28;20595;-86
2022/12/04 07:40:45;;;;;;;65.43;27.57;;;0.10;99.90;;;;;;5055301;28;20188;-85
2022/12/04 07:43:11;;;;;;;72.83;29.83;;;0.10;99.90;;;;;;5072060;28;20216;-86
2022/12/04 07:45:37;;;;;;;67.50;29.77;;;0.10;99.90;;;;;;5055460;28;20180;-85
2022/12/04 07:48:03;;;;;;;70.20;28.53;;;0.10;99.90;;;;;;5073495;28;20184;-85
2022/12/04 07:50:28;;;;;;;68.37;30.40;;;0.00;99.90;;;;;;5072657;28;20236;-86
2022/12/04 07:52:54;;;;;;;66.07;29.80;;;0.10;99.90;;;;;;5055504;28;20226;-86
2022/12/04 07:55:20;;;;;;;68.97;30.17;;;0.10;99.90;;;;;;5055249;28;20632;-85
2022/12/04 07:57:46;;;;;;;62.27;28.47;;;0.10;99.90;;;;;;5055158;28;20639;-85
2022/12/04 08:00:12;;;;;;;70.50;29.63;;;0.10;99.90;;;;;;5055545;28;20184;-85
2022/12/04 08:02:38;;;;;;;66.67;29.53;;;0.00;99.90;;;;;;5055294;28;20205;-84
2022/12/04 08:05:04;;;;;;;68.53;30.33;;;0.10;99.90;;;;;;5073398;28;20192;-85
2022/12/04 08:07:30;;;;;;;71.47;32.53;;;0.10;99.90;;;;;;5073392;28;20177;-86
2022/12/04 08:09:56;;;;;;;67.63;28.63;;;0.10;99.90;;;;;;5061128;28;20184;-86
2022/12/04 08:12:22;;;;;;;77.23;30.00;;;0.10;99.90;;;;;;5059331;28;20194;-86
2022/12/04 08:14:49;;;;;;;72.30;30.73;;;0.10;99.90;;;;;;5082122;28;20192;-85
2022/12/04 08:17:15;;;;;;;74.60;30.23;;;0.10;99.90;;;;;;5068815;28;20212;-85
2022/12/04 08:19:40;;;;;;;61.43;25.67;;;0.00;99.90;;;;;;5072182;28;20218;-86
2022/12/04 08:22:06;;;;;;;70.23;29.57;;;0.10;99.90;;;;;;5093332;28;20168;-86
2022/12/04 08:24:33;;;;;;;75.90;30.50;;;0.10;99.90;;;;;;5073246;28;20205;-86
2022/12/04 08:26:58;;;;;;;68.10;29.97;;;0.10;99.90;;;;;;5075564;28;20496;-87
2022/12/04 08:29:24;;;;;;;77.90;29.83;;;0.00;99.90;;;;;;5075552;28;20177;-86
2022/12/04 08:31:50;;;;;;;75.60;29.30;;;0.00;99.90;;;;;;5075550;28;20607;-86
2022/12/04 08:34:16;;;;;;;72.17;31.47;;;0.10;99.90;;;;;;5093648;28;20176;-85
2022/12/04 08:36:41;;;;;;;75.57;30.80;;;0.00;99.90;;;;;;5075491;28;20267;-87
2022/12/04 08:39:08;;;;;;;69.80;30.77;;;0.00;99.90;;;;;;5075946;28;20264;-86
2022/12/04 08:41:34;;;;;;;72.50;30.03;;;0.10;99.90;;;;;;5077248;28;20238;-86
2022/12/04 08:44:00;;;;;;;77.90;31.23;;;0.10;99.90;;;;;;5096446;28;20792;-85
2022/12/04 08:46:26;;;;;;;77.50;31.47;;;0.10;99.90;;;;;;5095868;28;20260;-86
2022/12/04 08:48:53;;;;;;;78.17;32.83;;;0.10;99.90;;;;;;5078839;28;20173;-86
2022/12/04 08:51:21;;;;;;;77.13;29.97;;;0.10;99.90;;;;;;5096716;28;20218;-86
2022/12/04 08:53:53;;;;;;;73.73;30.47;;;0.10;99.90;;;;;;5095599;28;20181;-86
2022/12/04 08:56:19;;;;;;;72.63;29.93;;;0.10;99.90;;;;;;5095735;28;20180;-85
2022/12/04 08:58:45;;;;;;;69.90;29.67;;;0.20;99.90;;;;;;5079010;28;20177;-86
2022/12/04 09:01:12;;;;;;;68.60;28.50;;;0.10;99.90;;;;;;5077777;28;20176;-86
2022/12/04 09:03:39;;;;;;;73.57;30.57;;;0.10;99.90;;;;;;5076072;28;20220;-85
2022/12/04 09:06:06;;;;;;;71.43;28.80;;;0.10;99.90;;;;;;5081197;28;20173;-86
2022/12/04 09:08:32;;;;;;;78.87;30.37;;;0.10;99.90;;;;;;5076330;28;20188;-87
2022/12/04 09:11:04;;;;;;;70.93;30.50;;;0.10;99.90;;;;;;5058214;28;20182;-86
2022/12/04 09:13:30;;;;;;;65.77;28.07;;;0.10;99.90;;;;;;5058334;28;20264;-85
2022/12/04 09:15:56;;;;;;;82.47;31.03;;;0.10;99.90;;;;;;5058268;28;20263;-85
2022/12/04 09:18:21;;;;;;;73.03;29.43;;;0.20;99.90;;;;;;5058331;28;20315;-85
2022/12/04 09:20:58;;;;;;;68.13;30.00;;;0.20;99.90;;;;;;5076065;28;20170;-86
2022/12/04 09:23:25;;;;;;;64.20;28.63;;;0.20;99.90;;;;;;5058022;28;20212;-85
2022/12/04 09:25:51;;;;;;;72.60;28.87;;;0.20;99.90;;;;;;5058118;28;20192;-85
2022/12/04 09:28:17;;;;;;;71.47;29.60;;;0.20;99.90;;;;;;5057972;28;20173;-84
2022/12/04 09:30:43;;;;;;;77.43;30.87;;;0.20;99.90;;;;;;5057999;28;20608;-86
2022/12/04 09:33:09;;;;;;;79.63;31.60;;;0.20;99.90;;;;;;5075728;28;20235;-85
2022/12/04 09:35:38;;;;;;;78.93;30.63;;;0.20;99.90;;;;;;5057434;28;20206;-85
2022/12/04 09:38:03;;;;;;;65.80;28.77;;;0.20;99.90;;;;;;5075629;28;20245;-85
2022/12/04 09:40:44;;;;;;;74.37;29.13;;;0.20;99.90;;;;;;5057812;28;20200;-85
2022/12/04 09:43:41;;;;;;;75.50;29.23;;;0.20;99.90;;;;;;5075469;28;20188;-86
2022/12/04 09:46:21;;;;;;;77.97;29.17;;;0.20;99.90;;;;;;5057566;28;20177;-86
2022/12/04 09:48:48;;;;;;;73.80;29.13;;;0.20;99.90;;;;;;5057557;28;20173;-86
2022/12/04 09:51:18;;;;;;;72.83;29.43;;;0.30;99.90;;;;;;5069242;28;20320;-85
2022/12/04 09:53:49;;;;;;;75.10;28.97;;;0.30;99.90;;;;;;5095586;28;20183;-86
2022/12/04 09:56:20;;;;;;;65.43;27.27;;;0.30;99.90;;;;;;5095558;28;20214;-85
2022/12/04 09:59:18;;;;;;;70.37;28.70;;;0.30;99.90;;;;;;5077335;28;20259;-85
2022/12/04 10:01:48;;;;;;;74.47;29.77;;;0.30;99.90;;;;;;5095657;28;20223;-87
2022/12/04 10:04:16;;;;;;;73.67;30.47;;;0.30;99.90;;;;;;5095139;28;20232;-86
2022/12/04 10:06:55;;;;;;;77.63;31.73;;;0.30;99.90;;;;;;5077170;28;20172;-87
2022/12/04 10:09:31;;;;;;;80.50;34.57;;;0.30;99.90;;;;;;5077298;28;20613;-87
2022/12/04 10:12:05;;;;;;;82.87;31.60;;;0.30;99.90;;;;;;5077164;28;20178;-86
2022/12/04 10:14:51;;;;;;;68.23;27.60;;;0.40;99.90;;;;;;5077210;28;20207;-87
2022/12/04 10:17:32;;;;;;;73.23;28.93;;;0.40;99.90;;;;;;5076328;28;20193;-86
2022/12/04 10:20:39;;;;;;;67.30;27.83;;;0.30;99.90;;;;;;5095363;28;20168;-87
2022/12/04 10:23:31;;;;;;;70.17;28.63;;;0.40;99.90;;;;;;5076879;28;20216;-88
2022/12/04 10:25:58;;;;;;;67.17;26.27;;;0.40;99.90;;;;;;5095188;28;20215;-89
2022/12/04 10:28:35;;;;;;;62.60;26.00;;;0.40;99.90;;;;;;5076798;28;20181;-88
2022/12/04 10:31:03;;;;;;;68.20;27.07;;;0.50;99.90;;;;;;5095080;28;20247;-87
2022/12/04 10:34:08;;;;;;;62.23;27.17;;;0.50;99.90;;;;;;5076660;28;20180;-87
2022/12/04 10:36:34;;;;;;;71.03;30.37;;;0.50;99.90;;;;;;5059277;28;20537;-88
2022/12/04 10:39:17;;;;;;;61.67;25.93;;;0.50;99.90;;;;;;5076984;28;20333;-87
2022/12/04 10:41:58;;;;;;;61.20;26.77;;;0.50;99.90;;;;;;5076561;28;20290;-86
2022/12/04 10:44:24;;;;;;;70.37;28.90;;;0.50;99.90;;;;;;5076558;28;20250;-86
2022/12/04 10:46:54;;;;;;;82.53;37.00;;;0.50;99.90;;;;;;5076680;28;20172;-86
2022/12/04 10:49:24;;;;;;;77.63;33.30;;;0.50;99.90;;;;;;5076572;28;20173;-87
2022/12/04 10:51:50;;;;;;;62.67;29.47;;;0.50;99.90;;;;;;5094436;28;20552;-87
2022/12/04 10:54:21;;;;;;;65.10;28.37;;;0.50;99.90;;;;;;5076343;28;20211;-87
2022/12/04 10:56:58;;;;;;;60.97;27.53;;;0.50;99.90;;;;;;5076320;28;20168;-86
2022/12/04 10:59:25;;;;;;;66.10;28.97;;;0.60;99.90;;;;;;5093285;28;20175;-86
2022/12/04 11:02:26;;;;;;;61.73;27.47;;;0.60;99.90;;;;;;5093014;28;20184;-87
2022/12/04 11:05:04;;;;;;;62.33;26.50;;;0.60;99.90;;;;;;5094091;28;20183;-86
2022/12/04 11:07:35;;;;;;;61.93;27.03;;;0.60;99.90;;;;;;5092953;28;20181;-87
2022/12/04 11:10:16;;;;;;;61.53;27.90;;;0.60;99.90;;;;;;5093151;28;20176;-86
2022/12/04 11:12:55;;;;;;;68.63;29.23;;;0.60;99.90;;;;;;5093083;28;20251;-86
2022/12/04 11:15:22;;;;;;;66.73;28.07;;;0.60;99.90;;;;;;5092879;28;20518;-88
2022/12/04 11:17:47;;;;;;;70.87;28.87;;;0.60;99.90;;;;;;5092940;28;20192;-88
2022/12/04 11:20:22;;;;;;;69.97;29.80;;;0.60;99.90;;;;;;5076206;28;20226;-87
2022/12/04 11:22:59;;;;;;;65.50;28.67;;;0.60;99.90;;;;;;5092752;28;20658;-88
2022/12/04 11:25:29;;;;;;;73.73;31.97;;;0.60;99.90;;;;;;5092994;28;20208;-86
2022/12/04 11:27:59;;;;;;;72.90;28.77;;;0.60;99.90;;;;;;5092742;28;20561;-87
2022/12/04 11:30:35;;;;;;;64.57;28.30;;;0.70;99.90;;;;;;5092808;28;20177;-85
2022/12/04 11:33:03;;;;;;;64.70;28.43;;;0.60;99.90;;;;;;5092694;28;20206;-87
2022/12/04 11:35:30;;;;;;;59.80;24.87;;;0.60;99.90;;;;;;5094093;28;20176;-86
2022/12/04 11:38:06;;;;;;;63.03;28.40;;;0.70;99.90;;;;;;5092804;28;20173;-87
2022/12/04 11:40:33;;;;;;;71.83;28.93;;;0.70;99.90;;;;;;5092803;28;20603;-87
2022/12/04 11:43:02;;;;;;;66.80;29.87;;;0.70;99.90;;;;;;5092795;28;20200;-88
2022/12/04 11:45:27;;;;;;;77.87;31.63;;;0.70;99.90;;;;;;5075999;28;20615;-87
2022/12/04 11:47:59;;;;;;;66.10;28.03;;;0.70;99.90;;;;;;5076048;28;20196;-88
2022/12/04 11:50:57;;;;;;;74.33;30.80;;;0.70;99.90;;;;;;5092666;28;20281;-87
2022/12/04 11:53:45;;;;;;;73.13;29.47;;;0.70;99.90;;;;;;5094327;28;20234;-88
2022/12/04 11:56:25;;;;;;;69.20;28.20;;;0.70;99.90;;;;;;5092682;28;20169;-88
2022/12/04 11:59:06;;;;;;;64.50;28.93;;;0.70;99.90;;;;;;5075953;28;20599;-87
2022/12/04 12:01:47;;;;;;;67.07;29.60;;;0.70;99.90;;;;;;5092586;28;20252;-86
2022/12/04 12:04:12;;;;;;;62.37;26.73;;;0.70;99.90;;;;;;5094131;28;20198;-86
2022/12/04 12:07:03;;;;;;;72.37;28.13;;;0.80;99.90;;;;;;5093672;28;20173;-87
2022/12/04 12:10:06;;;;;;;70.57;30.40;;;0.80;99.90;;;;;;5082778;28;20203;-87
2022/12/04 12:13:09;;;;;;;70.27;28.93;;;0.80;99.90;;;;;;5093864;28;20236;-87
2022/12/04 12:15:51;;;;;;;70.73;28.53;;;0.80;99.90;;;;;;5096782;28;20171;-87
2022/12/04 12:18:38;;;;;;;69.27;28.03;;;0.80;99.90;;;;;;5096257;28;20255;-87
2022/12/04 12:21:07;;;;;;;66.17;28.83;;;0.80;99.90;;;;;;5097610;28;20481;-87
2022/12/04 12:23:49;;;;;;;70.10;29.50;;;0.80;99.90;;;;;;5079300;28;20213;-87
2022/12/04 12:26:17;;;;;;;68.23;28.30;;;0.80;99.90;;;;;;5079195;28;20255;-87
2022/12/04 12:29:01;;;;;;;66.60;28.90;;;0.80;99.90;;;;;;5097269;28;20169;-87
2022/12/04 12:31:51;;;;;;;78.53;30.10;;;0.80;99.90;;;;;;5096252;28;20169;-87
2022/12/04 12:34:41;;;;;;;69.37;28.67;;;0.80;99.90;;;;;;5096106;28;20188;-87
2022/12/04 12:37:34;;;;;;;71.97;29.20;;;0.80;99.90;;;;;;5065974;28;20192;-85
2022/12/04 12:40:09;;;;;;;73.50;30.47;;;0.80;99.90;;;;;;5078224;28;20582;-85
2022/12/04 12:42:56;;;;;;;61.53;29.00;;;0.80;99.90;;;;;;5096886;28;20168;-86
2022/12/04 12:45:41;;;;;;;72.27;28.57;;;0.80;99.90;;;;;;5072770;28;20638;-87
2022/12/04 12:48:33;;;;;;;71.07;29.73;;;0.80;99.90;;;;;;5076620;28;20184;-85
2022/12/04 12:51:15;;;;;;;70.93;28.13;;;0.90;99.90;;;;;;5075475;28;20231;-86
2022/12/04 12:53:46;;;;;;;71.27;31.30;;;0.80;99.90;;;;;;5094047;28;20186;-86
2022/12/04 12:56:14;;;;;;;73.37;30.20;;;0.90;99.90;;;;;;5096362;28;20157;-86
2022/12/04 12:58:52;;;;;;;71.40;30.53;;;0.80;99.90;;;;;;5080357;28;20499;-85
2022/12/04 13:01:24;;;;;;;63.10;26.87;;;0.80;99.90;;;;;;5096052;28;20161;-85
2022/12/04 13:04:10;;;;;;;76.23;30.10;;;0.80;99.90;;;;;;5077567;28;20208;-85
2022/12/04 13:06:40;;;;;;;70.17;31.27;;;0.90;99.90;;;;;;5077616;28;20171;-85
2022/12/04 13:09:31;;;;;;;70.93;29.60;;;0.80;99.90;;;;;;5094396;28;20176;-85
2022/12/04 13:12:09;;;;;;;69.30;29.80;;;0.90;99.90;;;;;;5063280;28;20233;-85